createdAt,value
2024-04-23T00:01:40.220Z,6.63
2024-04-23T00:04:07.707Z,6.37
2024-04-23T00:06:35.087Z,6.10
2024-04-23T00:09:02.549Z,6.37
2024-04-23T00:11:31.558Z,6.27
2024-04-23T00:14:02.068Z,6.33
2024-04-23T00:16:29.601Z,7.13
2024-04-23T00:18:56.959Z,6.47
2024-04-23T00:21:24.351Z,6.20
2024-04-23T00:23:52.298Z,6.60
2024-04-23T00:26:19.729Z,6.50
2024-04-23T00:28:47.150Z,6.50
2024-04-23T00:31:14.552Z,6.83
2024-04-23T00:33:41.962Z,7.00
2024-04-23T00:36:09.438Z,7.23
2024-04-23T00:38:36.772Z,7.10
2024-04-23T00:41:04.327Z,7.17
2024-04-23T00:43:31.769Z,7.30
2024-04-23T00:46:05.524Z,7.50
2024-04-23T00:48:34.418Z,7.20
2024-04-23T00:51:02.009Z,7.40
2024-04-23T00:53:29.610Z,7.20
2024-04-23T00:55:58.104Z,6.83
2024-04-23T00:58:26.418Z,7.50
2024-04-23T01:00:54.290Z,6.73
2024-04-23T01:03:22.778Z,7.30
2024-04-23T01:05:50.391Z,7.13
2024-04-23T01:08:17.853Z,7.20
2024-04-23T01:10:45.456Z,7.10
2024-04-23T01:13:12.827Z,7.37
2024-04-23T01:15:40.992Z,7.30
2024-04-23T01:18:09.379Z,7.33
2024-04-23T01:20:40.207Z,7.20
2024-04-23T01:23:16.242Z,7.20
2024-04-23T01:25:46.565Z,7.70
2024-04-23T01:28:14.422Z,7.10
2024-04-23T01:30:42.972Z,7.03
2024-04-23T01:33:13.008Z,7.27
2024-04-23T01:35:41.486Z,7.03
2024-04-23T01:38:11.206Z,7.50
2024-04-23T01:40:39.182Z,6.93
2024-04-23T01:43:06.956Z,7.00
2024-04-23T01:45:35.391Z,7.20
2024-04-23T01:48:05.977Z,7.03
2024-04-23T01:50:33.579Z,7.37
2024-04-23T01:53:01.130Z,7.13
2024-04-23T01:55:28.716Z,7.47
2024-04-23T01:57:56.199Z,7.73
2024-04-23T02:00:25.463Z,7.03
2024-04-23T02:02:53.906Z,7.60
2024-04-23T02:05:21.668Z,7.63
2024-04-23T02:07:49.252Z,7.20
2024-04-23T02:10:16.627Z,7.20
2024-04-23T02:12:44.098Z,7.07
2024-04-23T02:15:11.545Z,7.53
2024-04-23T02:17:39.149Z,7.13
2024-04-23T02:20:08.941Z,7.10
2024-04-23T02:22:36.404Z,7.10
2024-04-23T02:25:04.576Z,7.10
2024-04-23T02:27:31.974Z,6.83
2024-04-23T02:30:02.364Z,7.47
2024-04-23T02:32:30.140Z,7.33
2024-04-23T02:34:57.732Z,6.80
2024-04-23T02:37:25.240Z,7.23
2024-04-23T02:39:52.597Z,7.47
2024-04-23T02:42:19.954Z,7.70
2024-04-23T02:44:47.265Z,7.50
2024-04-23T02:47:14.623Z,7.40
2024-04-23T02:49:42.000Z,7.20
2024-04-23T02:52:09.393Z,7.27
2024-04-23T02:54:36.734Z,7.07
2024-04-23T02:57:04.156Z,7.40
2024-04-23T02:59:31.503Z,6.87
2024-04-23T03:02:06.541Z,7.27
2024-04-23T03:04:34.563Z,7.40
2024-04-23T03:07:02.062Z,7.10
2024-04-23T03:09:29.599Z,7.20
2024-04-23T03:11:57.285Z,7.10
2024-04-23T03:14:24.669Z,7.50
2024-04-23T03:16:52.059Z,7.27
2024-04-23T03:19:19.502Z,7.53
2024-04-23T03:21:54.942Z,7.50
2024-04-23T03:24:23.060Z,8.10
2024-04-23T03:26:50.936Z,7.67
2024-04-23T03:29:19.514Z,7.57
2024-04-23T03:31:47.628Z,7.70
2024-04-23T03:34:15.155Z,7.93
2024-04-23T03:36:43.476Z,7.10
2024-04-23T03:39:11.141Z,7.60
2024-04-23T03:41:38.603Z,7.67
2024-04-23T03:44:06.059Z,7.30
2024-04-23T03:46:33.437Z,7.13
2024-04-23T03:49:00.790Z,7.10
2024-04-23T03:51:28.155Z,7.77
2024-04-23T03:53:55.521Z,7.10
2024-04-23T03:56:22.841Z,7.40
2024-04-23T03:58:50.272Z,7.97
2024-04-23T04:01:17.638Z,7.53
2024-04-23T04:04:03.825Z,7.50
2024-04-23T04:06:31.166Z,7.50
2024-04-23T04:09:01.434Z,7.40
2024-04-23T04:11:35.657Z,7.73
2024-04-23T04:14:03.958Z,7.17
2024-04-23T04:16:35.228Z,8.27
2024-04-23T04:19:03.441Z,9.47
2024-04-23T04:21:30.844Z,9.57
2024-04-23T04:23:58.202Z,9.57
2024-04-23T04:26:25.919Z,8.00
2024-04-23T04:28:54.265Z,8.50
2024-04-23T04:31:21.620Z,8.60
2024-04-23T04:33:48.968Z,8.57
2024-04-23T04:36:16.304Z,8.33
2024-04-23T04:38:43.651Z,7.80
2024-04-23T04:41:11.127Z,8.00
2024-04-23T04:43:38.575Z,8.10
2024-04-23T04:46:05.975Z,7.80
2024-04-23T04:48:33.420Z,7.07
2024-04-23T04:51:00.814Z,7.50
2024-04-23T04:53:28.211Z,7.40
2024-04-23T04:55:56.129Z,7.07
2024-04-23T04:58:23.569Z,7.30
2024-04-23T05:00:52.484Z,7.43
2024-04-23T05:03:19.886Z,7.20
2024-04-23T05:05:47.281Z,7.13
2024-04-23T05:08:14.636Z,6.83
2024-04-23T05:10:42.545Z,7.43
2024-04-23T05:13:10.416Z,6.97
2024-04-23T05:15:37.781Z,7.30
2024-04-23T05:18:05.311Z,7.83
2024-04-23T05:20:33.262Z,7.47
2024-04-23T05:23:00.744Z,6.87
2024-04-23T05:25:28.318Z,7.10
2024-04-23T05:27:55.718Z,7.63
2024-04-23T05:30:42.005Z,7.07
2024-04-23T05:33:09.530Z,7.10
2024-04-23T05:35:37.002Z,7.10
2024-04-23T05:38:04.626Z,7.17
2024-04-23T05:40:32.159Z,7.17
2024-04-23T05:42:59.539Z,7.07
2024-04-23T05:45:26.894Z,6.97
2024-04-23T05:48:32.093Z,7.47
2024-04-23T05:51:55.847Z,6.97
2024-04-23T05:55:19.919Z,6.67
2024-04-23T05:57:55.476Z,7.53
2024-04-23T06:00:23.161Z,7.30
2024-04-23T06:02:50.568Z,6.90
2024-04-23T06:05:18.369Z,6.77
2024-04-23T06:07:45.748Z,6.57
2024-04-23T06:10:13.222Z,7.37
2024-04-23T06:12:40.655Z,7.00
2024-04-23T06:15:08.172Z,7.00
2024-04-23T06:17:41.878Z,7.20
2024-04-23T06:20:14.870Z,6.90
2024-04-23T06:22:43.606Z,6.20
2024-04-23T06:25:12.200Z,6.50
2024-04-23T06:27:40.920Z,6.60
2024-04-23T06:30:12.799Z,6.63
2024-04-23T06:32:41.393Z,6.40
2024-04-23T06:35:10.335Z,6.67
2024-04-23T06:37:38.624Z,7.13
2024-04-23T06:40:09.888Z,6.40
2024-04-23T06:42:38.178Z,6.33
2024-04-23T06:45:05.997Z,6.30
2024-04-23T06:47:34.989Z,7.00
2024-04-23T06:50:03.122Z,6.83
2024-04-23T06:52:30.664Z,6.50
2024-04-23T06:54:59.370Z,6.57
2024-04-23T06:57:27.455Z,6.43
2024-04-23T06:59:54.912Z,6.90
2024-04-23T07:02:22.532Z,6.33
2024-04-23T07:04:50.225Z,6.70
2024-04-23T07:07:17.580Z,7.07
2024-04-23T07:09:44.966Z,6.30
2024-04-23T07:12:12.312Z,6.63
2024-04-23T07:14:39.612Z,6.70
2024-04-23T07:17:07.019Z,6.53
2024-04-23T07:19:34.412Z,6.67
2024-04-23T07:22:01.819Z,7.13
2024-04-23T07:24:29.148Z,7.03
2024-04-23T07:26:56.515Z,6.93
2024-04-23T07:29:23.890Z,7.03
2024-04-23T07:31:51.275Z,6.93
2024-04-23T07:34:18.636Z,6.53
2024-04-23T07:36:47.083Z,7.30
2024-04-23T07:39:15.047Z,7.37
2024-04-23T07:41:42.727Z,7.43
2024-04-23T07:44:10.407Z,7.10
2024-04-23T07:46:38.153Z,8.23
2024-04-23T07:49:05.632Z,7.53
2024-04-23T07:51:33.995Z,7.90
2024-04-23T07:54:01.646Z,7.43
2024-04-23T07:56:29.031Z,8.00
2024-04-23T07:58:56.423Z,7.47
2024-04-23T08:01:23.802Z,7.20
2024-04-23T08:03:51.194Z,7.13
2024-04-23T08:06:18.525Z,7.80
2024-04-23T08:08:45.903Z,7.03
2024-04-23T08:11:13.764Z,7.20
2024-04-23T08:13:41.451Z,7.50
2024-04-23T08:16:09.177Z,7.83
2024-04-23T08:18:36.782Z,8.03
2024-04-23T08:21:07.734Z,7.27
2024-04-23T08:23:35.211Z,7.57
2024-04-23T08:26:10.385Z,7.50
2024-04-23T08:28:37.999Z,8.30
2024-04-23T08:31:05.768Z,7.40
2024-04-23T08:33:35.524Z,7.10
2024-04-23T08:36:03.131Z,7.70
2024-04-23T08:38:31.148Z,7.70
2024-04-23T08:40:59.135Z,7.50
2024-04-23T08:43:36.021Z,7.90
2024-04-23T08:46:04.508Z,8.50
2024-04-23T08:48:34.174Z,8.00
2024-04-23T08:51:02.552Z,7.50
2024-04-23T08:53:30.234Z,8.10
2024-04-23T08:56:06.976Z,7.60
2024-04-23T08:58:37.995Z,8.23
2024-04-23T09:01:08.179Z,7.67
2024-04-23T09:03:45.732Z,7.67
2024-04-23T09:06:13.970Z,8.77
2024-04-23T09:08:42.017Z,9.27
2024-04-23T09:11:09.476Z,7.90
2024-04-23T09:13:36.964Z,8.23
2024-04-23T09:16:04.392Z,8.17
2024-04-23T09:18:33.090Z,8.27
2024-04-23T09:21:03.545Z,8.40
2024-04-23T09:23:35.003Z,7.27
2024-04-23T09:26:03.696Z,7.87
2024-04-23T09:28:36.438Z,7.60
2024-04-23T09:31:05.257Z,7.70
2024-04-23T09:33:33.730Z,7.47
2024-04-23T09:36:06.082Z,7.53
2024-04-23T09:38:43.395Z,7.60
2024-04-23T09:41:11.856Z,7.90
2024-04-23T09:43:39.709Z,8.17
2024-04-23T09:46:09.978Z,7.93
2024-04-23T09:48:41.041Z,7.73
2024-04-23T09:51:10.494Z,8.03
2024-04-23T09:53:39.242Z,8.27
2024-04-23T09:56:11.335Z,8.07
2024-04-23T09:58:38.833Z,8.93
2024-04-23T10:01:07.191Z,8.30
2024-04-23T10:03:36.811Z,8.13
2024-04-23T10:06:06.023Z,8.60
2024-04-23T10:08:51.451Z,8.00
2024-04-23T10:11:27.571Z,7.90
2024-04-23T10:14:03.664Z,8.27
2024-04-23T10:16:41.444Z,8.27
2024-04-23T10:19:12.044Z,8.13
2024-04-23T10:21:43.030Z,8.33
2024-04-23T10:24:11.433Z,7.90
2024-04-23T10:26:46.412Z,8.87
2024-04-23T10:29:15.268Z,8.53
2024-04-23T10:31:43.856Z,8.00
2024-04-23T10:34:16.683Z,8.40
2024-04-23T10:36:51.234Z,8.50
2024-04-23T10:39:23.581Z,8.23
2024-04-23T10:41:52.975Z,7.83
2024-04-23T10:44:23.056Z,8.10
2024-04-23T10:46:50.784Z,7.83
2024-04-23T10:49:18.557Z,8.73
2024-04-23T10:51:49.423Z,7.50
2024-04-23T10:54:21.636Z,7.93
2024-04-23T10:56:58.522Z,8.40
2024-04-23T10:59:34.149Z,7.73
2024-04-23T11:02:04.049Z,8.13
2024-04-23T11:04:36.119Z,8.17
2024-04-23T11:07:04.677Z,8.17
2024-04-23T11:09:47.095Z,7.80
2024-04-23T11:12:19.022Z,7.60
2024-04-23T11:14:46.820Z,8.00
2024-04-23T11:17:14.549Z,8.03
2024-04-23T11:19:49.710Z,7.50
2024-04-23T11:22:18.386Z,7.73
2024-04-23T11:24:51.875Z,7.77
2024-04-23T11:27:19.796Z,8.50
2024-04-23T11:29:49.061Z,8.30
2024-04-23T11:32:18.161Z,8.00
2024-04-23T11:34:47.715Z,8.20
2024-04-23T11:37:26.582Z,8.00
2024-04-23T11:40:01.027Z,7.80
2024-04-23T11:42:29.689Z,7.97
2024-04-23T11:45:05.330Z,7.80
2024-04-23T11:47:34.533Z,8.63
2024-04-23T11:50:06.350Z,8.77
2024-04-23T11:52:34.607Z,8.00
2024-04-23T11:55:04.813Z,8.20
2024-04-23T11:57:32.596Z,8.30
2024-04-23T12:00:02.922Z,8.10
2024-04-23T12:02:34.904Z,7.43
2024-04-23T12:05:05.129Z,7.60
2024-04-23T12:07:33.790Z,7.83
2024-04-23T12:10:05.412Z,7.63
2024-04-23T12:12:37.109Z,7.73
2024-04-23T12:15:05.917Z,7.93
2024-04-23T12:17:33.998Z,7.77
2024-04-23T12:20:01.667Z,7.93
2024-04-23T12:22:29.063Z,8.37
2024-04-23T12:24:56.542Z,8.57
2024-04-23T12:27:24.264Z,8.23
2024-04-23T12:29:52.812Z,8.47
2024-04-23T12:32:27.496Z,8.30
2024-04-23T12:34:58.412Z,8.00
2024-04-23T12:37:26.291Z,8.00
2024-04-23T12:39:56.516Z,7.97
2024-04-23T12:42:27.744Z,7.77
2024-04-23T12:44:55.110Z,7.90
2024-04-23T12:47:24.154Z,7.40
2024-04-23T12:49:52.539Z,7.47
2024-04-23T12:52:20.150Z,8.37
2024-04-23T12:54:49.924Z,7.20
2024-04-23T12:59:23.638Z,7.90
2024-04-23T13:01:51.582Z,8.10
2024-04-23T13:04:19.267Z,8.60
2024-04-23T13:06:46.639Z,7.73
2024-04-23T13:09:15.267Z,7.73
2024-04-23T13:11:42.609Z,7.47
2024-04-23T13:14:10.378Z,7.97
2024-04-23T13:16:45.958Z,8.07
2024-04-23T13:19:16.127Z,10.57
2024-04-23T13:21:43.429Z,7.30
2024-04-23T13:24:10.807Z,7.27
2024-04-23T13:26:38.156Z,7.87
2024-04-23T13:29:06.559Z,7.20
2024-04-23T13:31:33.970Z,7.60
2024-04-23T13:34:01.310Z,6.87
2024-04-23T13:36:28.625Z,7.77
2024-04-23T13:38:55.936Z,7.47
2024-04-23T13:41:23.651Z,7.50
2024-04-23T13:43:51.084Z,7.50
2024-04-23T13:46:18.397Z,7.67
2024-04-23T13:48:46.307Z,7.63
2024-04-23T13:51:13.675Z,7.03
2024-04-23T13:53:42.673Z,7.40
2024-04-23T13:56:11.688Z,7.80
2024-04-23T13:58:39.306Z,6.97
2024-04-23T14:01:10.580Z,7.00
2024-04-23T14:03:38.696Z,7.30
2024-04-23T14:06:06.755Z,7.33
2024-04-23T14:08:35.026Z,7.33
2024-04-23T14:11:09.693Z,30.00
2024-04-23T14:13:38.081Z,12.50
2024-04-23T14:16:10.836Z,8.00
2024-04-23T14:18:38.319Z,10.30
2024-04-23T14:21:06.031Z,9.10
2024-04-23T14:23:34.019Z,8.57
2024-04-23T14:26:01.588Z,7.87
2024-04-23T14:28:34.604Z,8.20
2024-04-23T14:31:05.443Z,7.37
2024-04-23T14:33:33.560Z,44.80
2024-04-23T14:36:05.457Z,34.20
2024-04-23T14:38:33.814Z,17.03
2024-04-23T14:41:05.792Z,16.67
2024-04-23T14:43:34.734Z,14.63
2024-04-23T14:46:13.460Z,10.23
2024-04-23T14:48:41.741Z,11.53
2024-04-23T14:51:10.053Z,16.60
2024-04-23T14:53:38.141Z,14.70
2024-04-23T14:56:07.488Z,11.63
2024-04-23T14:58:35.698Z,8.97
2024-04-23T15:01:10.862Z,8.30
2024-04-23T15:03:38.315Z,7.53
2024-04-23T15:06:09.714Z,8.70
2024-04-23T15:08:38.669Z,8.20
2024-04-23T15:11:07.446Z,7.87
2024-04-23T15:13:35.742Z,8.50
2024-04-23T15:16:07.802Z,7.60
2024-04-23T15:18:42.347Z,7.40
2024-04-23T15:21:12.151Z,7.23
2024-04-23T15:23:39.684Z,6.80
2024-04-23T15:26:07.542Z,6.70
2024-04-23T15:28:41.938Z,7.33
2024-04-23T15:31:09.720Z,7.10
2024-04-23T15:33:37.844Z,7.30
2024-04-23T15:36:10.474Z,7.40
2024-04-23T15:38:44.293Z,7.27
2024-04-23T15:41:14.997Z,7.40
2024-04-23T15:43:42.547Z,7.33
2024-04-23T15:46:16.964Z,10.40
2024-04-23T15:48:44.601Z,14.33
2024-04-23T15:51:12.150Z,9.03
2024-04-23T15:53:39.593Z,9.37
2024-04-23T15:56:07.774Z,7.17
2024-04-23T15:58:35.346Z,8.90
2024-04-23T16:01:09.844Z,9.20
2024-04-23T16:03:38.790Z,9.23
2024-04-23T16:06:07.143Z,8.93
2024-04-23T16:08:35.300Z,14.03
2024-04-23T16:11:06.671Z,9.80
2024-04-23T16:13:35.485Z,9.93
2024-04-23T16:16:04.600Z,7.80
2024-04-23T16:18:33.125Z,6.90
2024-04-23T16:21:04.888Z,7.50
2024-04-23T16:23:32.528Z,6.73
2024-04-23T16:26:04.961Z,7.57
2024-04-23T16:28:32.589Z,7.80
2024-04-23T16:31:07.626Z,7.50
2024-04-23T16:33:38.878Z,7.37
2024-04-23T16:36:08.510Z,7.10
2024-04-23T16:38:39.497Z,7.20
2024-04-23T16:41:08.860Z,7.00
2024-04-23T16:43:36.785Z,8.03
2024-04-23T16:46:09.797Z,7.63
2024-04-23T16:48:38.085Z,7.73
2024-04-23T16:51:09.272Z,7.80
2024-04-23T16:53:39.515Z,8.33
2024-04-23T16:56:09.457Z,8.00
2024-04-23T16:58:37.229Z,7.70
2024-04-23T17:01:08.584Z,7.70
2024-04-23T17:03:36.405Z,7.93
2024-04-23T17:06:04.227Z,8.47
2024-04-23T17:08:31.768Z,7.27
2024-04-23T17:11:03.241Z,6.37
2024-04-23T17:13:33.369Z,7.80
2024-04-23T17:16:01.087Z,7.60
2024-04-23T17:18:30.215Z,6.60
2024-04-23T17:20:57.553Z,7.37
2024-04-23T17:23:27.956Z,7.13
2024-04-23T17:25:55.327Z,6.50
2024-04-23T17:28:22.682Z,6.77
2024-04-23T17:30:50.103Z,6.70
2024-04-23T17:33:19.773Z,6.90
2024-04-23T17:35:47.160Z,7.30
2024-04-23T17:38:14.638Z,6.80
2024-04-23T17:40:42.027Z,6.60
2024-04-23T17:43:09.400Z,6.60
2024-04-23T17:45:36.775Z,6.80
2024-04-23T17:48:04.414Z,7.47
2024-04-23T17:50:32.234Z,7.07
2024-04-23T17:52:59.608Z,7.43
2024-04-23T17:55:26.994Z,7.37
2024-04-23T17:57:54.369Z,6.83
2024-04-23T18:00:23.168Z,7.50
2024-04-23T18:02:50.875Z,8.27
2024-04-23T18:05:18.276Z,7.77
2024-04-23T18:07:45.660Z,7.50
2024-04-23T18:10:13.030Z,7.77
2024-04-23T18:12:40.441Z,8.23
2024-04-23T18:15:08.078Z,7.87
2024-04-23T18:17:37.028Z,7.80
2024-04-23T18:20:04.825Z,8.07
2024-04-23T18:22:32.182Z,7.90
2024-04-23T18:24:59.510Z,8.20
2024-04-23T18:27:26.857Z,8.13
2024-04-23T18:29:54.164Z,7.87
2024-04-23T18:32:21.639Z,8.33
2024-04-23T18:34:49.217Z,8.13
2024-04-23T18:37:16.600Z,8.20
2024-04-23T18:39:44.157Z,8.57
2024-04-23T18:42:13.378Z,7.90
2024-04-23T18:44:40.777Z,7.80
2024-04-23T18:47:08.175Z,7.87
2024-04-23T18:49:35.509Z,8.40
2024-04-23T18:52:02.958Z,8.50
2024-04-23T18:54:31.413Z,7.80
2024-04-23T18:56:58.731Z,8.07
2024-04-23T18:59:26.059Z,8.63
2024-04-23T19:01:53.428Z,8.10
2024-04-23T19:04:20.803Z,8.80
2024-04-23T19:06:48.560Z,7.97
2024-04-23T19:09:15.923Z,8.00
2024-04-23T19:11:43.771Z,8.60
2024-04-23T19:14:16.338Z,8.80
2024-04-23T19:16:45.857Z,8.70
2024-04-23T19:19:13.449Z,8.17
2024-04-23T19:21:41.069Z,8.70
2024-04-23T19:24:08.518Z,8.47
2024-04-23T19:26:35.873Z,8.33
2024-04-23T19:29:03.741Z,8.03
2024-04-23T19:31:31.276Z,8.60
2024-04-23T19:34:01.135Z,8.00
2024-04-23T19:36:29.356Z,8.37
2024-04-23T19:38:56.753Z,8.60
2024-04-23T19:41:24.132Z,9.00
2024-04-23T19:43:53.817Z,9.63
2024-04-23T19:46:25.483Z,9.20
2024-04-23T19:48:56.445Z,9.60
2024-04-23T19:51:24.373Z,9.53
2024-04-23T19:53:52.155Z,10.43
2024-04-23T19:56:55.956Z,9.70
2024-04-23T19:59:24.759Z,9.67
2024-04-23T20:01:52.236Z,9.30
2024-04-23T20:04:19.723Z,9.70
2024-04-23T20:06:47.147Z,9.03
2024-04-23T20:09:16.957Z,8.93
2024-04-23T20:11:44.540Z,10.37
2024-04-23T20:14:12.157Z,10.37
2024-04-23T20:16:39.689Z,9.60
2024-04-23T20:19:07.106Z,8.77
2024-04-23T20:21:34.876Z,9.37
2024-04-23T20:24:02.223Z,9.30
2024-04-23T20:26:29.589Z,9.33
2024-04-23T20:28:58.304Z,10.17
2024-04-23T20:31:25.808Z,9.47
2024-04-23T20:33:53.221Z,9.20
2024-04-23T20:36:22.140Z,9.83
2024-04-23T20:38:49.643Z,9.37
2024-04-23T20:41:17.403Z,9.73
2024-04-23T20:43:44.910Z,9.13
2024-04-23T20:46:12.384Z,8.90
2024-04-23T20:48:39.940Z,9.30
2024-04-23T20:51:07.456Z,9.40
2024-04-23T20:53:34.794Z,9.53
2024-04-23T20:56:08.709Z,9.47
2024-04-23T20:58:36.609Z,9.47
2024-04-23T21:01:11.806Z,9.90
2024-04-23T21:03:40.345Z,10.07
2024-04-23T21:06:12.227Z,9.30
2024-04-23T21:08:40.735Z,9.43
2024-04-23T21:11:17.465Z,9.53
2024-04-23T21:13:46.197Z,10.23
2024-04-23T21:16:15.208Z,10.13
2024-04-23T21:18:43.410Z,11.07
2024-04-23T21:21:11.576Z,11.03
2024-04-23T21:23:38.942Z,10.77
2024-04-23T21:26:06.303Z,11.17
2024-04-23T21:28:34.055Z,11.00
2024-04-23T21:31:01.934Z,11.90
2024-04-23T21:33:29.656Z,10.50
2024-04-23T21:36:01.533Z,10.70
2024-04-23T21:38:28.879Z,10.83
2024-04-23T21:40:56.254Z,10.53
2024-04-23T21:43:23.687Z,10.60
2024-04-23T21:45:50.997Z,11.77
2024-04-23T21:48:18.374Z,11.97
2024-04-23T21:50:45.784Z,11.10
2024-04-23T21:53:13.217Z,10.97
2024-04-23T21:55:40.594Z,10.67
2024-04-23T21:58:07.888Z,10.67
2024-04-23T22:00:35.293Z,10.20
2024-04-23T22:03:02.724Z,9.73
2024-04-23T22:05:31.067Z,10.50
2024-04-23T22:07:58.514Z,11.27
2024-04-23T22:10:25.865Z,11.10
2024-04-23T22:12:53.174Z,10.93
2024-04-23T22:15:28.237Z,10.83
2024-04-23T22:18:03.100Z,11.00
2024-04-23T22:20:30.543Z,10.20
2024-04-23T22:22:58.109Z,11.53
2024-04-23T22:25:25.454Z,9.63
2024-04-23T22:27:52.769Z,10.97
2024-04-23T22:30:20.087Z,10.37
2024-04-23T22:32:47.662Z,10.97
2024-04-23T22:35:15.375Z,11.03
2024-04-23T22:37:42.824Z,11.17
2024-04-23T22:40:10.519Z,10.73
2024-04-23T22:42:40.415Z,11.80
2024-04-23T22:45:08.473Z,11.67
2024-04-23T22:47:35.967Z,11.23
2024-04-23T22:50:03.619Z,11.87
2024-04-23T22:52:30.990Z,12.40
2024-04-23T22:54:58.600Z,11.13
2024-04-23T22:57:25.927Z,11.60
2024-04-23T22:59:53.284Z,11.47
2024-04-23T23:02:20.712Z,11.13
2024-04-23T23:04:48.102Z,10.73
2024-04-23T23:07:15.528Z,11.03
2024-04-23T23:09:42.846Z,10.83
2024-04-23T23:12:10.264Z,10.97
2024-04-23T23:14:37.851Z,11.17
2024-04-23T23:17:05.268Z,10.40
2024-04-23T23:19:32.557Z,10.40
2024-04-23T23:21:59.897Z,10.23
2024-04-23T23:24:27.230Z,10.47
2024-04-23T23:26:54.586Z,10.13
2024-04-23T23:29:21.954Z,10.03
2024-04-23T23:31:49.259Z,9.47
2024-04-23T23:34:16.631Z,9.67
2024-04-23T23:36:43.965Z,9.30
2024-04-23T23:39:11.328Z,9.17
2024-04-23T23:41:38.642Z,10.03
2024-04-23T23:44:06.946Z,9.53
2024-04-23T23:46:34.629Z,9.70
2024-04-23T23:49:02.151Z,10.60
2024-04-23T23:51:29.471Z,11.30
2024-04-23T23:53:56.804Z,10.17
2024-04-23T23:56:24.174Z,10.17
2024-04-23T23:58:51.601Z,10.70
